sensor_id;sensor_type;location;lat;lon;timestamp;pressure;altitude;pressure_sealevel;temperature
78905;BMP280;68291;49.602;8.722;2023-05-10T00:02:44;98888.09;;;16.53
78905;BMP280;68291;49.602;8.722;2023-05-10T00:05:43;98878.28;;;16.57
78905;BMP280;68291;49.602;8.722;2023-05-10T00:08:51;98886.09;;;16.57
78905;BMP280;68291;49.602;8.722;2023-05-10T00:11:46;98884.91;;;16.61
78905;BMP280;68291;49.602;8.722;2023-05-10T00:14:39;98887.94;;;16.66
78905;BMP280;68291;49.602;8.722;2023-05-10T00:17:38;98880.41;;;16.63
78905;BMP280;68291;49.602;8.722;2023-05-10T00:20:28;98885.00;;;16.59
78905;BMP280;68291;49.602;8.722;2023-05-10T00:23:26;98879.00;;;16.59
78905;BMP280;68291;49.602;8.722;2023-05-10T00:26:36;98874.97;;;16.55
78905;BMP280;68291;49.602;8.722;2023-05-10T00:29:50;98876.28;;;16.60
78905;BMP280;68291;49.602;8.722;2023-05-10T00:32:39;98880.03;;;16.67
78905;BMP280;68291;49.602;8.722;2023-05-10T00:35:40;98883.09;;;16.72
78905;BMP280;68291;49.602;8.722;2023-05-10T00:38:31;98882.53;;;16.69
78905;BMP280;68291;49.602;8.722;2023-05-10T00:41:28;98880.63;;;16.60
78905;BMP280;68291;49.602;8.722;2023-05-10T00:44:26;98888.44;;;16.60
78905;BMP280;68291;49.602;8.722;2023-05-10T00:47:31;98885.72;;;16.61
78905;BMP280;68291;49.602;8.722;2023-05-10T00:50:36;98892.00;;;16.59
78905;BMP280;68291;49.602;8.722;2023-05-10T00:53:27;98888.56;;;16.58
78905;BMP280;68291;49.602;8.722;2023-05-10T00:56:18;98888.22;;;16.63
78905;BMP280;68291;49.602;8.722;2023-05-10T00:59:14;98886.78;;;16.59
78905;BMP280;68291;49.602;8.722;2023-05-10T01:02:07;98890.47;;;16.56
78905;BMP280;68291;49.602;8.722;2023-05-10T01:05:02;98885.97;;;16.58
78905;BMP280;68291;49.602;8.722;2023-05-10T01:07:56;98892.00;;;16.59
78905;BMP280;68291;49.602;8.722;2023-05-10T01:10:54;98894.13;;;16.65
78905;BMP280;68291;49.602;8.722;2023-05-10T01:13:52;98894.81;;;16.67
78905;BMP280;68291;49.602;8.722;2023-05-10T01:17:01;98884.16;;;16.70
78905;BMP280;68291;49.602;8.722;2023-05-10T01:20:01;98895.75;;;16.66
78905;BMP280;68291;49.602;8.722;2023-05-10T01:27:22;98893.19;;;16.44
78905;BMP280;68291;49.602;8.722;2023-05-10T01:30:50;98903.47;;;16.45
78905;BMP280;68291;49.602;8.722;2023-05-10T01:33:56;98900.75;;;16.47
78905;BMP280;68291;49.602;8.722;2023-05-10T01:37:10;98903.94;;;16.50
78905;BMP280;68291;49.602;8.722;2023-05-10T01:40:10;98901.69;;;16.57
78905;BMP280;68291;49.602;8.722;2023-05-10T01:43:15;98901.22;;;16.63
78905;BMP280;68291;49.602;8.722;2023-05-10T01:46:27;98906.88;;;16.68
78905;BMP280;68291;49.602;8.722;2023-05-10T01:49:43;98909.34;;;16.69
78905;BMP280;68291;49.602;8.722;2023-05-10T01:52:53;98910.91;;;16.61
78905;BMP280;68291;49.602;8.722;2023-05-10T01:55:51;98916.81;;;16.63
78905;BMP280;68291;49.602;8.722;2023-05-10T01:58:47;98923.78;;;16.62
78905;BMP280;68291;49.602;8.722;2023-05-10T02:01:45;98911.38;;;16.55
78905;BMP280;68291;49.602;8.722;2023-05-10T02:05:04;98920.13;;;16.54
78905;BMP280;68291;49.602;8.722;2023-05-10T02:07:57;98921.75;;;16.55
78905;BMP280;68291;49.602;8.722;2023-05-10T02:10:59;98919.88;;;16.57
78905;BMP280;68291;49.602;8.722;2023-05-10T02:13:51;98920.22;;;16.63
78905;BMP280;68291;49.602;8.722;2023-05-10T02:16:50;98926.72;;;16.69
78905;BMP280;68291;49.602;8.722;2023-05-10T02:20:09;98929.91;;;16.72
78905;BMP280;68291;49.602;8.722;2023-05-10T02:23:00;98927.28;;;16.72
78905;BMP280;68291;49.602;8.722;2023-05-10T02:26:00;98929.06;;;16.72
78905;BMP280;68291;49.602;8.722;2023-05-10T02:29:16;98932.84;;;16.68
78905;BMP280;68291;49.602;8.722;2023-05-10T02:32:14;98928.97;;;16.62
78905;BMP280;68291;49.602;8.722;2023-05-10T02:35:22;98941.50;;;16.57
78905;BMP280;68291;49.602;8.722;2023-05-10T02:38:35;98940.56;;;16.58
78905;BMP280;68291;49.602;8.722;2023-05-10T02:41:43;98938.31;;;16.65
78905;BMP280;68291;49.602;8.722;2023-05-10T02:45:02;98939.84;;;16.67
78905;BMP280;68291;49.602;8.722;2023-05-10T02:47:56;98939.25;;;16.64
78905;BMP280;68291;49.602;8.722;2023-05-10T02:51:07;98940.78;;;16.55
78905;BMP280;68291;49.602;8.722;2023-05-10T02:54:15;98931.59;;;16.51
78905;BMP280;68291;49.602;8.722;2023-05-10T02:57:32;98942.22;;;16.48
78905;BMP280;68291;49.602;8.722;2023-05-10T03:00:26;98946.59;;;16.48
78905;BMP280;68291;49.602;8.722;2023-05-10T03:03:45;98947.53;;;16.47
78905;BMP280;68291;49.602;8.722;2023-05-10T03:06:51;98938.53;;;16.51
78905;BMP280;68291;49.602;8.722;2023-05-10T03:09:50;98941.63;;;16.56
78905;BMP280;68291;49.602;8.722;2023-05-10T03:13:07;98939.59;;;16.59
78905;BMP280;68291;49.602;8.722;2023-05-10T03:16:09;98943.38;;;16.55
78905;BMP280;68291;49.602;8.722;2023-05-10T03:19:22;98939.25;;;16.53
78905;BMP280;68291;49.602;8.722;2023-05-10T03:22:46;98947.19;;;16.51
78905;BMP280;68291;49.602;8.722;2023-05-10T03:25:43;98955.31;;;16.47
78905;BMP280;68291;49.602;8.722;2023-05-10T03:28:43;98949.53;;;16.44
78905;BMP280;68291;49.602;8.722;2023-05-10T03:31:52;98946.84;;;16.45
78905;BMP280;68291;49.602;8.722;2023-05-10T03:35:08;98944.25;;;16.45
78905;BMP280;68291;49.602;8.722;2023-05-10T03:38:17;98957.22;;;16.45
78905;BMP280;68291;49.602;8.722;2023-05-10T03:41:21;98954.13;;;16.51
78905;BMP280;68291;49.602;8.722;2023-05-10T03:44:18;98967.03;;;16.52
78905;BMP280;68291;49.602;8.722;2023-05-10T03:47:26;98957.59;;;16.51
78905;BMP280;68291;49.602;8.722;2023-05-10T03:50:19;98963.00;;;16.48
78905;BMP280;68291;49.602;8.722;2023-05-10T03:53:49;98956.38;;;16.44
78905;BMP280;68291;49.602;8.722;2023-05-10T03:56:39;98962.66;;;16.42
78905;BMP280;68291;49.602;8.722;2023-05-10T03:59:30;98969.38;;;16.44
78905;BMP280;68291;49.602;8.722;2023-05-10T04:02:44;98969.28;;;16.46
78905;BMP280;68291;49.602;8.722;2023-05-10T04:05:38;98956.75;;;16.40
78905;BMP280;68291;49.602;8.722;2023-05-10T04:08:51;98973.75;;;16.44
78905;BMP280;68291;49.602;8.722;2023-05-10T04:11:51;98972.22;;;16.42
78905;BMP280;68291;49.602;8.722;2023-05-10T04:15:00;98979.56;;;16.37
78905;BMP280;68291;49.602;8.722;2023-05-10T04:18:08;98981.53;;;16.33
78905;BMP280;68291;49.602;8.722;2023-05-10T04:21:02;98966.91;;;16.32
78905;BMP280;68291;49.602;8.722;2023-05-10T04:24:07;98984.16;;;16.33
78905;BMP280;68291;49.602;8.722;2023-05-10T04:27:06;98989.69;;;16.29
78905;BMP280;68291;49.602;8.722;2023-05-10T04:30:18;98985.31;;;16.18
78905;BMP280;68291;49.602;8.722;2023-05-10T04:33:31;99002.03;;;16.14
78905;BMP280;68291;49.602;8.722;2023-05-10T04:36:27;99000.28;;;16.15
78905;BMP280;68291;49.602;8.722;2023-05-10T04:42:47;98990.50;;;16.18
78905;BMP280;68291;49.602;8.722;2023-05-10T04:45:57;98997.38;;;16.19
78905;BMP280;68291;49.602;8.722;2023-05-10T04:48:49;98997.13;;;16.22
78905;BMP280;68291;49.602;8.722;2023-05-10T04:51:39;98999.81;;;16.21
78905;BMP280;68291;49.602;8.722;2023-05-10T04:54:55;99014.13;;;16.15
78905;BMP280;68291;49.602;8.722;2023-05-10T04:57:51;99013.38;;;16.13
78905;BMP280;68291;49.602;8.722;2023-05-10T05:01:06;99014.84;;;16.17
78905;BMP280;68291;49.602;8.722;2023-05-10T05:03:58;99024.75;;;16.23
78905;BMP280;68291;49.602;8.722;2023-05-10T05:07:04;99021.94;;;16.26
78905;BMP280;68291;49.602;8.722;2023-05-10T05:10:10;99019.34;;;16.26
78905;BMP280;68291;49.602;8.722;2023-05-10T05:13:02;99031.63;;;16.24
78905;BMP280;68291;49.602;8.722;2023-05-10T05:16:10;99031.63;;;16.24
78905;BMP280;68291;49.602;8.722;2023-05-10T05:19:09;99034.69;;;16.29
78905;BMP280;68291;49.602;8.722;2023-05-10T05:22:00;99034.47;;;16.32
78905;BMP280;68291;49.602;8.722;2023-05-10T05:25:08;99041.91;;;16.37
78905;BMP280;68291;49.602;8.722;2023-05-10T05:28:03;99036.94;;;16.44
78905;BMP280;68291;49.602;8.722;2023-05-10T05:31:10;99030.69;;;16.47
78905;BMP280;68291;49.602;8.722;2023-05-10T05:34:08;99031.19;;;16.52
78905;BMP280;68291;49.602;8.722;2023-05-10T05:36:58;99037.09;;;16.54
78905;BMP280;68291;49.602;8.722;2023-05-10T05:39:47;99029.75;;;16.59
78905;BMP280;68291;49.602;8.722;2023-05-10T05:43:10;99045.81;;;16.64
78905;BMP280;68291;49.602;8.722;2023-05-10T05:46:04;99039.78;;;16.63
78905;BMP280;68291;49.602;8.722;2023-05-10T05:49:02;99039.19;;;16.60
78905;BMP280;68291;49.602;8.722;2023-05-10T05:51:57;99040.88;;;16.61
78905;BMP280;68291;49.602;8.722;2023-05-10T05:54:53;99045.81;;;16.64
78905;BMP280;68291;49.602;8.722;2023-05-10T05:57:51;99046.63;;;16.64
78905;BMP280;68291;49.602;8.722;2023-05-10T06:01:03;99048.91;;;16.69
78905;BMP280;68291;49.602;8.722;2023-05-10T06:04:02;99053.41;;;16.78
78905;BMP280;68291;49.602;8.722;2023-05-10T06:07:13;99056.81;;;16.89
78905;BMP280;68291;49.602;8.722;2023-05-10T06:10:07;99059.66;;;16.97
78905;BMP280;68291;49.602;8.722;2023-05-10T06:12:56;99059.03;;;17.04
78905;BMP280;68291;49.602;8.722;2023-05-10T06:16:18;99064.47;;;17.12
78905;BMP280;68291;49.602;8.722;2023-05-10T06:19:18;99064.03;;;17.18
78905;BMP280;68291;49.602;8.722;2023-05-10T06:22:36;99066.03;;;17.14
78905;BMP280;68291;49.602;8.722;2023-05-10T06:25:42;99074.06;;;17.12
78905;BMP280;68291;49.602;8.722;2023-05-10T06:28:32;99071.31;;;17.13
78905;BMP280;68291;49.602;8.722;2023-05-10T06:31:26;99076.53;;;17.13
78905;BMP280;68291;49.602;8.722;2023-05-10T06:34:39;99073.84;;;17.14
78905;BMP280;68291;49.602;8.722;2023-05-10T06:37:38;99076.09;;;17.19
78905;BMP280;68291;49.602;8.722;2023-05-10T06:40:26;99070.88;;;17.30
78905;BMP280;68291;49.602;8.722;2023-05-10T06:43:25;99072.38;;;17.43
78905;BMP280;68291;49.602;8.722;2023-05-10T06:46:28;99075.19;;;17.51
78905;BMP280;68291;49.602;8.722;2023-05-10T06:49:22;99076.72;;;17.53
78905;BMP280;68291;49.602;8.722;2023-05-10T06:52:21;99065.22;;;17.56
78905;BMP280;68291;49.602;8.722;2023-05-10T06:55:12;99069.00;;;17.63
78905;BMP280;68291;49.602;8.722;2023-05-10T06:58:05;99075.25;;;17.71
78905;BMP280;68291;49.602;8.722;2023-05-10T07:01:16;99078.78;;;17.81
78905;BMP280;68291;49.602;8.722;2023-05-10T07:04:11;99083.09;;;17.91
78905;BMP280;68291;49.602;8.722;2023-05-10T07:07:14;99075.09;;;18.04
78905;BMP280;68291;49.602;8.722;2023-05-10T07:10:15;99083.09;;;18.22
78905;BMP280;68291;49.602;8.722;2023-05-10T07:13:18;99086.34;;;18.35
78905;BMP280;68291;49.602;8.722;2023-05-10T07:16:08;99081.81;;;18.37
78905;BMP280;68291;49.602;8.722;2023-05-10T07:19:14;99091.75;;;18.43
78905;BMP280;68291;49.602;8.722;2023-05-10T07:22:04;99094.22;;;18.45
78905;BMP280;68291;49.602;8.722;2023-05-10T07:25:02;99087.63;;;18.41
78905;BMP280;68291;49.602;8.722;2023-05-10T07:27:54;99090.84;;;18.33
78905;BMP280;68291;49.602;8.722;2023-05-10T07:30:46;99100.72;;;18.30
78905;BMP280;68291;49.602;8.722;2023-05-10T07:33:35;99097.41;;;18.28
78905;BMP280;68291;49.602;8.722;2023-05-10T07:36:34;99097.41;;;18.28
78905;BMP280;68291;49.602;8.722;2023-05-10T07:39:31;99096.66;;;18.37
78905;BMP280;68291;49.602;8.722;2023-05-10T07:42:29;99092.53;;;18.34
78905;BMP280;68291;49.602;8.722;2023-05-10T07:45:20;99094.59;;;18.40
78905;BMP280;68291;49.602;8.722;2023-05-10T07:48:10;99089.19;;;18.52
78905;BMP280;68291;49.602;8.722;2023-05-10T07:51:13;99097.31;;;18.59
78905;BMP280;68291;49.602;8.722;2023-05-10T07:54:07;99098.47;;;18.66
78905;BMP280;68291;49.602;8.722;2023-05-10T07:57:02;99092.72;;;18.72
78905;BMP280;68291;49.602;8.722;2023-05-10T08:00:00;99090.75;;;18.85
78905;BMP280;68291;49.602;8.722;2023-05-10T08:02:58;99094.00;;;18.97
78905;BMP280;68291;49.602;8.722;2023-05-10T08:05:49;99086.88;;;19.09
78905;BMP280;68291;49.602;8.722;2023-05-10T08:08:54;99088.97;;;19.15
78905;BMP280;68291;49.602;8.722;2023-05-10T08:11:55;99088.56;;;19.10
78905;BMP280;68291;49.602;8.722;2023-05-10T08:14:45;99094.59;;;19.10
78905;BMP280;68291;49.602;8.722;2023-05-10T08:17:44;99093.53;;;19.22
78905;BMP280;68291;49.602;8.722;2023-05-10T08:20:34;99093.97;;;19.27
78905;BMP280;68291;49.602;8.722;2023-05-10T08:23:42;99096.81;;;19.24
78905;BMP280;68291;49.602;8.722;2023-05-10T08:27:08;99094.31;;;19.13
78905;BMP280;68291;49.602;8.722;2023-05-10T08:30:11;99097.91;;;19.21
78905;BMP280;68291;49.602;8.722;2023-05-10T08:33:06;99096.44;;;19.28
78905;BMP280;68291;49.602;8.722;2023-05-10T08:35:55;99101.94;;;19.35
78905;BMP280;68291;49.602;8.722;2023-05-10T08:38:54;99105.94;;;19.39
78905;BMP280;68291;49.602;8.722;2023-05-10T08:41:46;99102.16;;;19.52
78905;BMP280;68291;49.602;8.722;2023-05-10T08:47:37;99095.00;;;19.63
78905;BMP280;68291;49.602;8.722;2023-05-10T08:50:34;99113.59;;;19.70
78905;BMP280;68291;49.602;8.722;2023-05-10T08:53:33;99109.47;;;19.67
78905;BMP280;68291;49.602;8.722;2023-05-10T08:56:28;99108.78;;;19.75
78905;BMP280;68291;49.602;8.722;2023-05-10T08:59:27;99118.03;;;19.88
78905;BMP280;68291;49.602;8.722;2023-05-10T09:02:50;99125.03;;;19.97
78905;BMP280;68291;49.602;8.722;2023-05-10T09:05:44;99119.28;;;20.03
78905;BMP280;68291;49.602;8.722;2023-05-10T09:08:47;99130.81;;;20.10
78905;BMP280;68291;49.602;8.722;2023-05-10T09:11:37;99125.06;;;20.16
78905;BMP280;68291;49.602;8.722;2023-05-10T09:14:37;99120.50;;;20.27
78905;BMP280;68291;49.602;8.722;2023-05-10T09:17:35;99114.59;;;20.34
78905;BMP280;68291;49.602;8.722;2023-05-10T09:20:47;99117.06;;;20.45
78905;BMP280;68291;49.602;8.722;2023-05-10T09:23:50;99126.38;;;20.57
78905;BMP280;68291;49.602;8.722;2023-05-10T09:26:48;99124.19;;;20.71
78905;BMP280;68291;49.602;8.722;2023-05-10T09:29:55;99118.66;;;20.74
78905;BMP280;68291;49.602;8.722;2023-05-10T09:32:47;99131.63;;;20.76
78905;BMP280;68291;49.602;8.722;2023-05-10T09:36:07;99141.03;;;20.60
78905;BMP280;68291;49.602;8.722;2023-05-10T09:38:58;99156.16;;;20.37
78905;BMP280;68291;49.602;8.722;2023-05-10T09:42:02;99157.78;;;20.01
78905;BMP280;68291;49.602;8.722;2023-05-10T09:45:04;99167.56;;;19.51
78905;BMP280;68291;49.602;8.722;2023-05-10T09:48:02;99179.50;;;19.14
78905;BMP280;68291;49.602;8.722;2023-05-10T09:51:00;99174.59;;;18.80
78905;BMP280;68291;49.602;8.722;2023-05-10T09:54:11;99177.41;;;18.48
78905;BMP280;68291;49.602;8.722;2023-05-10T09:57:20;99177.19;;;18.19
78905;BMP280;68291;49.602;8.722;2023-05-10T10:00:10;99168.22;;;18.02
78905;BMP280;68291;49.602;8.722;2023-05-10T10:03:16;99172.47;;;18.03
78905;BMP280;68291;49.602;8.722;2023-05-10T10:06:27;99174.09;;;18.15
78905;BMP280;68291;49.602;8.722;2023-05-10T10:09:36;99173.44;;;18.33
78905;BMP280;68291;49.602;8.722;2023-05-10T10:12:32;99171.44;;;18.56
78905;BMP280;68291;49.602;8.722;2023-05-10T10:15:48;99171.72;;;18.83
78905;BMP280;68291;49.602;8.722;2023-05-10T10:18:47;99169.47;;;19.10
78905;BMP280;68291;49.602;8.722;2023-05-10T10:21:42;99159.78;;;19.30
78905;BMP280;68291;49.602;8.722;2023-05-10T10:24:36;99162.69;;;19.37
78905;BMP280;68291;49.602;8.722;2023-05-10T10:27:55;99162.16;;;19.33
78905;BMP280;68291;49.602;8.722;2023-05-10T10:30:53;99172.53;;;19.24
78905;BMP280;68291;49.602;8.722;2023-05-10T10:34:00;99178.81;;;19.12
78905;BMP280;68291;49.602;8.722;2023-05-10T10:37:44;99186.28;;;18.96
78905;BMP280;68291;49.602;8.722;2023-05-10T10:41:06;99193.25;;;18.76
78905;BMP280;68291;49.602;8.722;2023-05-10T10:44:25;99197.00;;;18.62
78905;BMP280;68291;49.602;8.722;2023-05-10T10:47:24;99201.69;;;18.48
78905;BMP280;68291;49.602;8.722;2023-05-10T10:50:45;99205.81;;;18.30
78905;BMP280;68291;49.602;8.722;2023-05-10T10:53:51;99204.88;;;18.20
78905;BMP280;68291;49.602;8.722;2023-05-10T10:57:11;99196.56;;;18.26
78905;BMP280;68291;49.602;8.722;2023-05-10T11:00:28;99198.00;;;18.30
78905;BMP280;68291;49.602;8.722;2023-05-10T11:03:22;99199.34;;;18.45
78905;BMP280;68291;49.602;8.722;2023-05-10T11:06:30;99191.84;;;18.72
78905;BMP280;68291;49.602;8.722;2023-05-10T11:09:40;99191.81;;;19.03
78905;BMP280;68291;49.602;8.722;2023-05-10T11:13:00;99187.28;;;19.34
78905;BMP280;68291;49.602;8.722;2023-05-10T11:15:53;99188.47;;;19.51
78905;BMP280;68291;49.602;8.722;2023-05-10T11:18:57;99188.22;;;19.63
78905;BMP280;68291;49.602;8.722;2023-05-10T11:22:15;99186.44;;;19.73
78905;BMP280;68291;49.602;8.722;2023-05-10T11:25:35;99190.78;;;19.83
78905;BMP280;68291;49.602;8.722;2023-05-10T11:28:31;99189.44;;;19.89
78905;BMP280;68291;49.602;8.722;2023-05-10T11:31:43;99185.84;;;19.99
78905;BMP280;68291;49.602;8.722;2023-05-10T11:34:35;99179.25;;;20.14
78905;BMP280;68291;49.602;8.722;2023-05-10T11:37:29;99184.22;;;20.35
78905;BMP280;68291;49.602;8.722;2023-05-10T11:40:32;99192.25;;;20.62
78905;BMP280;68291;49.602;8.722;2023-05-10T11:43:33;99189.84;;;20.87
78905;BMP280;68291;49.602;8.722;2023-05-10T11:46:28;99186.91;;;21.09
78905;BMP280;68291;49.602;8.722;2023-05-10T11:49:24;99192.09;;;21.37
78905;BMP280;68291;49.602;8.722;2023-05-10T11:52:20;99182.53;;;21.45
78905;BMP280;68291;49.602;8.722;2023-05-10T11:55:21;99194.72;;;21.37
78905;BMP280;68291;49.602;8.722;2023-05-10T11:58:19;99196.25;;;21.21
78905;BMP280;68291;49.602;8.722;2023-05-10T12:01:18;99199.47;;;21.05
78905;BMP280;68291;49.602;8.722;2023-05-10T12:04:16;99199.91;;;20.92
78905;BMP280;68291;49.602;8.722;2023-05-10T12:07:14;99201.59;;;20.74
78905;BMP280;68291;49.602;8.722;2023-05-10T12:10:13;99206.78;;;20.55
78905;BMP280;68291;49.602;8.722;2023-05-10T12:13:24;99195.25;;;20.29
78905;BMP280;68291;49.602;8.722;2023-05-10T12:16:20;99200.72;;;20.08
78905;BMP280;68291;49.602;8.722;2023-05-10T12:19:20;99189.16;;;20.01
78905;BMP280;68291;49.602;8.722;2023-05-10T12:22:22;99196.06;;;20.02
78905;BMP280;68291;49.602;8.722;2023-05-10T12:25:15;99199.38;;;20.23
78905;BMP280;68291;49.602;8.722;2023-05-10T12:28:13;99193.06;;;20.53
78905;BMP280;68291;49.602;8.722;2023-05-10T12:31:19;99200.34;;;20.96
78905;BMP280;68291;49.602;8.722;2023-05-10T12:34:34;99198.84;;;21.30
78905;BMP280;68291;49.602;8.722;2023-05-10T12:37:29;99191.22;;;21.36
78905;BMP280;68291;49.602;8.722;2023-05-10T12:40:29;99196.25;;;21.21
78905;BMP280;68291;49.602;8.722;2023-05-10T12:43:18;99197.38;;;21.18
78905;BMP280;68291;49.602;8.722;2023-05-10T12:46:18;99205.06;;;21.29
78905;BMP280;68291;49.602;8.722;2023-05-10T12:49:23;99197.34;;;21.37
78905;BMP280;68291;49.602;8.722;2023-05-10T12:52:22;99201.00;;;21.53
78905;BMP280;68291;49.602;8.722;2023-05-10T12:55:11;99200.56;;;21.58
78905;BMP280;68291;49.602;8.722;2023-05-10T12:58:20;99206.34;;;21.52
78905;BMP280;68291;49.602;8.722;2023-05-10T13:01:36;99210.34;;;21.20
78905;BMP280;68291;49.602;8.722;2023-05-10T13:04:26;99213.81;;;21.01
78905;BMP280;68291;49.602;8.722;2023-05-10T13:07:24;99212.72;;;20.85
78905;BMP280;68291;49.602;8.722;2023-05-10T13:10:22;99218.13;;;20.74
78905;BMP280;68291;49.602;8.722;2023-05-10T13:13:12;99213.88;;;20.64
78905;BMP280;68291;49.602;8.722;2023-05-10T13:16:41;99207.50;;;20.57
78905;BMP280;68291;49.602;8.722;2023-05-10T13:19:31;99194.13;;;20.79
78905;BMP280;68291;49.602;8.722;2023-05-10T13:22:36;99207.84;;;21.18
78905;BMP280;68291;49.602;8.722;2023-05-10T13:25:27;99203.59;;;21.63
78905;BMP280;68291;49.602;8.722;2023-05-10T13:28:21;99192.88;;;22.00
78905;BMP280;68291;49.602;8.722;2023-05-10T13:31:39;99194.13;;;22.23
78905;BMP280;68291;49.602;8.722;2023-05-10T13:34:31;99186.09;;;22.24
78905;BMP280;68291;49.602;8.722;2023-05-10T13:37:23;99190.00;;;22.20
78905;BMP280;68291;49.602;8.722;2023-05-10T13:40:21;99189.25;;;22.28
78905;BMP280;68291;49.602;8.722;2023-05-10T13:43:19;99195.31;;;22.45
78905;BMP280;68291;49.602;8.722;2023-05-10T13:46:13;99196.44;;;22.60
78905;BMP280;68291;49.602;8.722;2023-05-10T13:49:27;99194.50;;;22.62
78905;BMP280;68291;49.602;8.722;2023-05-10T13:52:19;99200.34;;;22.56
78905;BMP280;68291;49.602;8.722;2023-05-10T13:55:17;99197.94;;;22.45
78905;BMP280;68291;49.602;8.722;2023-05-10T13:58:16;99194.50;;;22.28
78905;BMP280;68291;49.602;8.722;2023-05-10T14:01:05;99200.22;;;22.23
78905;BMP280;68291;49.602;8.722;2023-05-10T14:03:58;99196.31;;;22.44
78905;BMP280;68291;49.602;8.722;2023-05-10T14:06:58;99197.19;;;22.87
78905;BMP280;68291;49.602;8.722;2023-05-10T14:09:46;99187.63;;;23.03
78905;BMP280;68291;49.602;8.722;2023-05-10T14:12:36;99187.63;;;23.03
78905;BMP280;68291;49.602;8.722;2023-05-10T14:15:28;99187.13;;;23.00
78905;BMP280;68291;49.602;8.722;2023-05-10T14:18:19;99188.69;;;22.93
78905;BMP280;68291;49.602;8.722;2023-05-10T14:21:09;99197.78;;;22.81
78905;BMP280;68291;49.602;8.722;2023-05-10T14:24:03;99187.50;;;22.88
78905;BMP280;68291;49.602;8.722;2023-05-10T14:26:56;99183.44;;;22.93
78905;BMP280;68291;49.602;8.722;2023-05-10T14:29:47;99176.00;;;22.89
78905;BMP280;68291;49.602;8.722;2023-05-10T14:32:45;99185.38;;;22.74
78905;BMP280;68291;49.602;8.722;2023-05-10T14:35:40;99183.53;;;22.67
78905;BMP280;68291;49.602;8.722;2023-05-10T14:38:37;99180.59;;;22.69
78905;BMP280;68291;49.602;8.722;2023-05-10T14:41:31;99181.00;;;22.57
78905;BMP280;68291;49.602;8.722;2023-05-10T14:44:20;99179.22;;;22.40
78905;BMP280;68291;49.602;8.722;2023-05-10T14:47:13;99186.88;;;22.34
78905;BMP280;68291;49.602;8.722;2023-05-10T14:50:10;99175.31;;;22.44
78905;BMP280;68291;49.602;8.722;2023-05-10T14:53:24;99186.75;;;22.61
78905;BMP280;68291;49.602;8.722;2023-05-10T14:56:13;99182.09;;;22.72
78905;BMP280;68291;49.602;8.722;2023-05-10T14:59:04;99179.03;;;22.94
78905;BMP280;68291;49.602;8.722;2023-05-10T15:01:59;99170.91;;;23.12
78905;BMP280;68291;49.602;8.722;2023-05-10T15:04:50;99173.94;;;23.25
78905;BMP280;68291;49.602;8.722;2023-05-10T15:07:48;99183.13;;;23.21
78905;BMP280;68291;49.602;8.722;2023-05-10T15:10:51;99171.03;;;23.03
78905;BMP280;68291;49.602;8.722;2023-05-10T15:13:44;99175.56;;;22.76
78905;BMP280;68291;49.602;8.722;2023-05-10T15:16:47;99178.38;;;22.74
78905;BMP280;68291;49.602;8.722;2023-05-10T15:19:36;99183.22;;;22.87
78905;BMP280;68291;49.602;8.722;2023-05-10T15:22:31;99188.84;;;22.92
78905;BMP280;68291;49.602;8.722;2023-05-10T15:25:30;99190.81;;;22.90
78905;BMP280;68291;49.602;8.722;2023-05-10T15:28:29;99196.94;;;22.81
78905;BMP280;68291;49.602;8.722;2023-05-10T15:31:26;99189.00;;;22.73
78905;BMP280;68291;49.602;8.722;2023-05-10T15:34:32;99186.03;;;22.68
78905;BMP280;68291;49.602;8.722;2023-05-10T15:37:29;99185.78;;;22.79
78905;BMP280;68291;49.602;8.722;2023-05-10T15:40:26;99191.31;;;22.93
78905;BMP280;68291;49.602;8.722;2023-05-10T15:43:16;99195.44;;;22.96
78905;BMP280;68291;49.602;8.722;2023-05-10T15:46:10;99195.13;;;22.99
78905;BMP280;68291;49.602;8.722;2023-05-10T15:49:08;99199.78;;;23.04
78905;BMP280;68291;49.602;8.722;2023-05-10T15:52:07;99196.47;;;23.02
78905;BMP280;68291;49.602;8.722;2023-05-10T15:54:57;99191.53;;;23.00
78905;BMP280;68291;49.602;8.722;2023-05-10T15:57:48;99194.00;;;23.01
78905;BMP280;68291;49.602;8.722;2023-05-10T16:00:43;99195.91;;;23.16
78905;BMP280;68291;49.602;8.722;2023-05-10T16:03:34;99190.63;;;23.41
78905;BMP280;68291;49.602;8.722;2023-05-10T16:06:29;99191.94;;;23.63
78905;BMP280;68291;49.602;8.722;2023-05-10T16:09:28;99193.53;;;23.97
78905;BMP280;68291;49.602;8.722;2023-05-10T16:12:17;99177.84;;;24.36
78905;BMP280;68291;49.602;8.722;2023-05-10T16:15:24;99181.00;;;24.63
78905;BMP280;68291;49.602;8.722;2023-05-10T16:18:23;99188.88;;;24.87
78905;BMP280;68291;49.602;8.722;2023-05-10T16:21:12;99190.06;;;25.00
78905;BMP280;68291;49.602;8.722;2023-05-10T16:24:11;99197.09;;;25.00
78905;BMP280;68291;49.602;8.722;2023-05-10T16:27:16;99197.75;;;25.10
78905;BMP280;68291;49.602;8.722;2023-05-10T16:30:20;99193.16;;;25.11
78905;BMP280;68291;49.602;8.722;2023-05-10T16:33:18;99193.09;;;25.27
78905;BMP280;68291;49.602;8.722;2023-05-10T16:36:17;99190.13;;;25.38
78905;BMP280;68291;49.602;8.722;2023-05-10T16:39:15;99192.94;;;25.37
78905;BMP280;68291;49.602;8.722;2023-05-10T16:42:27;99190.47;;;25.35
78905;BMP280;68291;49.602;8.722;2023-05-10T16:45:31;99197.09;;;25.15
78905;BMP280;68291;49.602;8.722;2023-05-10T16:48:31;99196.78;;;24.87
78905;BMP280;68291;49.602;8.722;2023-05-10T16:51:28;99198.59;;;24.71
78905;BMP280;68291;49.602;8.722;2023-05-10T16:54:22;99206.63;;;24.45
78905;BMP280;68291;49.602;8.722;2023-05-10T16:57:34;99202.91;;;24.07
78905;BMP280;68291;49.602;8.722;2023-05-10T17:00:24;99207.50;;;24.05
78905;BMP280;68291;49.602;8.722;2023-05-10T17:03:25;99214.56;;;23.97
78905;BMP280;68291;49.602;8.722;2023-05-10T17:06:15;99215.06;;;24.00
78905;BMP280;68291;49.602;8.722;2023-05-10T17:09:27;99204.09;;;24.12
78905;BMP280;68291;49.602;8.722;2023-05-10T17:12:45;99201.50;;;24.28
78905;BMP280;68291;49.602;8.722;2023-05-10T17:15:45;99210.59;;;24.34
78905;BMP280;68291;49.602;8.722;2023-05-10T17:18:40;99217.41;;;24.19
78905;BMP280;68291;49.602;8.722;2023-05-10T17:21:37;99211.13;;;24.04
78905;BMP280;68291;49.602;8.722;2023-05-10T17:24:28;99220.13;;;23.94
78905;BMP280;68291;49.602;8.722;2023-05-10T17:27:27;99212.19;;;23.78
78905;BMP280;68291;49.602;8.722;2023-05-10T17:30:54;99222.72;;;23.53
78905;BMP280;68291;49.602;8.722;2023-05-10T17:33:44;99223.38;;;23.22